sensor_id;sensor_type;location;lat;lon;timestamp;P1;durP1;ratioP1;P2;durP2;ratioP2
28545;SDS011;15749;49.606;8.738;2023-10-09T00:00:14;4.07;;;3.30;;
28545;SDS011;15749;49.606;8.738;2023-10-09T00:03:18;3.50;;;3.20;;
28545;SDS011;15749;49.606;8.738;2023-10-09T00:05:50;5.97;;;3.43;;
28545;SDS011;15749;49.606;8.738;2023-10-09T00:08:21;4.53;;;4.07;;
28545;SDS011;15749;49.606;8.738;2023-10-09T00:10:55;5.60;;;4.33;;
28545;SDS011;15749;49.606;8.738;2023-10-09T00:13:26;4.03;;;3.73;;
28545;SDS011;15749;49.606;8.738;2023-10-09T00:15:58;5.60;;;4.10;;
28545;SDS011;15749;49.606;8.738;2023-10-09T00:18:41;4.40;;;4.00;;
28545;SDS011;15749;49.606;8.738;2023-10-09T00:21:16;4.63;;;4.20;;
28545;SDS011;15749;49.606;8.738;2023-10-09T00:24:06;5.67;;;4.37;;
28545;SDS011;15749;49.606;8.738;2023-10-09T00:26:44;4.87;;;4.10;;
28545;SDS011;15749;49.606;8.738;2023-10-09T00:29:14;6.10;;;4.40;;
28545;SDS011;15749;49.606;8.738;2023-10-09T00:31:49;4.53;;;3.73;;
28545;SDS011;15749;49.606;8.738;2023-10-09T00:34:22;3.10;;;2.80;;
28545;SDS011;15749;49.606;8.738;2023-10-09T00:36:53;2.97;;;2.67;;
28545;SDS011;15749;49.606;8.738;2023-10-09T00:39:25;3.87;;;2.93;;
28545;SDS011;15749;49.606;8.738;2023-10-09T00:42:10;3.97;;;3.63;;
28545;SDS011;15749;49.606;8.738;2023-10-09T00:44:41;4.43;;;4.00;;
28545;SDS011;15749;49.606;8.738;2023-10-09T00:47:11;4.37;;;3.90;;
28545;SDS011;15749;49.606;8.738;2023-10-09T00:49:51;3.47;;;3.17;;
28545;SDS011;15749;49.606;8.738;2023-10-09T00:52:28;5.43;;;4.30;;
28545;SDS011;15749;49.606;8.738;2023-10-09T00:55:05;6.60;;;4.33;;
28545;SDS011;15749;49.606;8.738;2023-10-09T00:57:44;5.47;;;4.43;;
28545;SDS011;15749;49.606;8.738;2023-10-09T01:00:17;2.80;;;2.60;;
28545;SDS011;15749;49.606;8.738;2023-10-09T01:03:01;3.00;;;2.50;;
28545;SDS011;15749;49.606;8.738;2023-10-09T01:05:48;3.40;;;2.67;;
28545;SDS011;15749;49.606;8.738;2023-10-09T01:08:25;3.03;;;2.43;;
28545;SDS011;15749;49.606;8.738;2023-10-09T01:11:11;2.33;;;2.13;;
28545;SDS011;15749;49.606;8.738;2023-10-09T01:13:47;4.10;;;2.50;;
28545;SDS011;15749;49.606;8.738;2023-10-09T01:16:39;2.50;;;2.30;;
28545;SDS011;15749;49.606;8.738;2023-10-09T01:19:10;4.33;;;3.47;;
28545;SDS011;15749;49.606;8.738;2023-10-09T01:21:51;3.73;;;3.37;;
28545;SDS011;15749;49.606;8.738;2023-10-09T01:24:22;4.83;;;3.93;;
28545;SDS011;15749;49.606;8.738;2023-10-09T01:26:54;4.40;;;4.00;;
28545;SDS011;15749;49.606;8.738;2023-10-09T01:29:27;3.47;;;3.17;;
28545;SDS011;15749;49.606;8.738;2023-10-09T01:31:57;5.43;;;3.47;;
28545;SDS011;15749;49.606;8.738;2023-10-09T01:34:30;4.47;;;4.07;;
28545;SDS011;15749;49.606;8.738;2023-10-09T01:37:11;3.30;;;3.00;;
28545;SDS011;15749;49.606;8.738;2023-10-09T01:39:48;3.07;;;2.77;;
28545;SDS011;15749;49.606;8.738;2023-10-09T01:42:19;3.77;;;3.47;;
28545;SDS011;15749;49.606;8.738;2023-10-09T01:45:02;3.60;;;3.20;;
28545;SDS011;15749;49.606;8.738;2023-10-09T01:47:38;3.50;;;3.20;;
28545;SDS011;15749;49.606;8.738;2023-10-09T01:50:08;4.43;;;3.50;;
28545;SDS011;15749;49.606;8.738;2023-10-09T01:52:48;4.17;;;3.20;;
28545;SDS011;15749;49.606;8.738;2023-10-09T01:55:20;4.03;;;2.93;;
28545;SDS011;15749;49.606;8.738;2023-10-09T01:58:01;2.40;;;2.20;;
28545;SDS011;15749;49.606;8.738;2023-10-09T02:00:33;2.43;;;2.23;;
28545;SDS011;15749;49.606;8.738;2023-10-09T02:03:10;3.80;;;2.73;;
28545;SDS011;15749;49.606;8.738;2023-10-09T02:05:51;4.47;;;2.50;;
28545;SDS011;15749;49.606;8.738;2023-10-09T02:08:44;2.50;;;2.30;;
28545;SDS011;15749;49.606;8.738;2023-10-09T02:11:18;3.67;;;2.83;;
28545;SDS011;15749;49.606;8.738;2023-10-09T02:14:03;3.93;;;3.53;;
28545;SDS011;15749;49.606;8.738;2023-10-09T02:16:46;4.07;;;3.40;;
28545;SDS011;15749;49.606;8.738;2023-10-09T02:19:44;3.30;;;3.00;;
28545;SDS011;15749;49.606;8.738;2023-10-09T02:22:17;2.70;;;2.50;;
28545;SDS011;15749;49.606;8.738;2023-10-09T02:24:46;3.13;;;2.83;;
28545;SDS011;15749;49.606;8.738;2023-10-09T02:27:25;3.20;;;2.90;;
28545;SDS011;15749;49.606;8.738;2023-10-09T02:30:12;5.13;;;3.40;;
28545;SDS011;15749;49.606;8.738;2023-10-09T02:32:47;5.23;;;3.40;;
28545;SDS011;15749;49.606;8.738;2023-10-09T02:35:22;5.17;;;3.60;;
28545;SDS011;15749;49.606;8.738;2023-10-09T02:37:58;4.00;;;3.47;;
28545;SDS011;15749;49.606;8.738;2023-10-09T02:40:28;2.50;;;2.30;;
28545;SDS011;15749;49.606;8.738;2023-10-09T02:43:00;3.73;;;2.97;;
28545;SDS011;15749;49.606;8.738;2023-10-09T02:45:29;3.23;;;2.93;;
28545;SDS011;15749;49.606;8.738;2023-10-09T02:48:03;2.87;;;2.43;;
28545;SDS011;15749;49.606;8.738;2023-10-09T02:50:39;2.53;;;2.03;;
28545;SDS011;15749;49.606;8.738;2023-10-09T02:53:12;3.67;;;2.10;;
28545;SDS011;15749;49.606;8.738;2023-10-09T02:55:46;2.83;;;1.83;;
28545;SDS011;15749;49.606;8.738;2023-10-09T02:58:39;2.37;;;2.17;;
28545;SDS011;15749;49.606;8.738;2023-10-09T03:01:10;2.73;;;2.40;;
28545;SDS011;15749;49.606;8.738;2023-10-09T03:03:40;3.80;;;3.30;;
28545;SDS011;15749;49.606;8.738;2023-10-09T03:06:15;3.80;;;3.20;;
28545;SDS011;15749;49.606;8.738;2023-10-09T03:08:52;3.83;;;3.43;;
28545;SDS011;15749;49.606;8.738;2023-10-09T03:11:22;3.50;;;3.20;;
28545;SDS011;15749;49.606;8.738;2023-10-09T03:13:54;3.17;;;2.20;;
28545;SDS011;15749;49.606;8.738;2023-10-09T03:16:23;3.70;;;3.00;;
28545;SDS011;15749;49.606;8.738;2023-10-09T03:18:54;2.50;;;2.13;;
28545;SDS011;15749;49.606;8.738;2023-10-09T03:21:25;4.00;;;2.83;;
28545;SDS011;15749;49.606;8.738;2023-10-09T03:23:54;3.67;;;2.70;;
28545;SDS011;15749;49.606;8.738;2023-10-09T03:26:23;2.90;;;2.27;;
28545;SDS011;15749;49.606;8.738;2023-10-09T03:28:53;2.13;;;1.93;;
28545;SDS011;15749;49.606;8.738;2023-10-09T03:31:22;2.20;;;2.00;;
28545;SDS011;15749;49.606;8.738;2023-10-09T03:33:51;2.30;;;2.10;;
28545;SDS011;15749;49.606;8.738;2023-10-09T03:36:20;2.23;;;2.03;;
28545;SDS011;15749;49.606;8.738;2023-10-09T03:38:55;2.20;;;2.00;;
28545;SDS011;15749;49.606;8.738;2023-10-09T03:41:25;2.80;;;2.30;;
28545;SDS011;15749;49.606;8.738;2023-10-09T03:43:56;2.67;;;2.40;;
28545;SDS011;15749;49.606;8.738;2023-10-09T03:46:26;3.23;;;2.30;;
28545;SDS011;15749;49.606;8.738;2023-10-09T03:49:00;2.53;;;2.30;;
28545;SDS011;15749;49.606;8.738;2023-10-09T03:51:38;2.33;;;1.97;;
28545;SDS011;15749;49.606;8.738;2023-10-09T03:54:10;2.50;;;2.30;;
28545;SDS011;15749;49.606;8.738;2023-10-09T03:56:41;4.43;;;2.93;;
28545;SDS011;15749;49.606;8.738;2023-10-09T03:59:10;4.20;;;2.20;;
28545;SDS011;15749;49.606;8.738;2023-10-09T04:01:43;5.30;;;2.90;;
28545;SDS011;15749;49.606;8.738;2023-10-09T04:04:13;4.13;;;2.77;;
28545;SDS011;15749;49.606;8.738;2023-10-09T04:06:43;5.73;;;2.73;;
28545;SDS011;15749;49.606;8.738;2023-10-09T04:09:15;3.87;;;3.20;;
28545;SDS011;15749;49.606;8.738;2023-10-09T04:12:03;3.27;;;2.93;;
28545;SDS011;15749;49.606;8.738;2023-10-09T04:20:54;2.97;;;2.50;;
28545;SDS011;15749;49.606;8.738;2023-10-09T04:23:47;4.27;;;2.53;;
28545;SDS011;15749;49.606;8.738;2023-10-09T04:26:37;3.27;;;2.10;;
28545;SDS011;15749;49.606;8.738;2023-10-09T04:29:11;2.90;;;2.20;;
28545;SDS011;15749;49.606;8.738;2023-10-09T04:31:45;5.53;;;2.57;;
28545;SDS011;15749;49.606;8.738;2023-10-09T04:34:19;3.47;;;2.60;;
28545;SDS011;15749;49.606;8.738;2023-10-09T04:36:56;3.50;;;2.60;;
28545;SDS011;15749;49.606;8.738;2023-10-09T04:39:28;2.60;;;1.80;;
28545;SDS011;15749;49.606;8.738;2023-10-09T04:42:05;4.73;;;2.23;;
28545;SDS011;15749;49.606;8.738;2023-10-09T04:44:54;2.60;;;2.17;;
28545;SDS011;15749;49.606;8.738;2023-10-09T04:47:43;8.47;;;2.67;;
28545;SDS011;15749;49.606;8.738;2023-10-09T04:50:25;3.27;;;2.30;;
28545;SDS011;15749;49.606;8.738;2023-10-09T04:53:15;2.70;;;2.13;;
28545;SDS011;15749;49.606;8.738;2023-10-09T04:55:55;4.07;;;2.77;;
28545;SDS011;15749;49.606;8.738;2023-10-09T04:58:26;2.67;;;2.37;;
28545;SDS011;15749;49.606;8.738;2023-10-09T05:00:55;3.97;;;2.27;;
28545;SDS011;15749;49.606;8.738;2023-10-09T05:03:42;4.07;;;2.40;;
28545;SDS011;15749;49.606;8.738;2023-10-09T05:06:19;3.97;;;2.37;;
28545;SDS011;15749;49.606;8.738;2023-10-09T05:08:48;2.87;;;2.37;;
28545;SDS011;15749;49.606;8.738;2023-10-09T05:11:22;3.00;;;2.67;;
28545;SDS011;15749;49.606;8.738;2023-10-09T05:14:21;3.23;;;2.30;;
28545;SDS011;15749;49.606;8.738;2023-10-09T05:17:06;3.20;;;2.20;;
28545;SDS011;15749;49.606;8.738;2023-10-09T05:19:43;1.93;;;1.70;;
28545;SDS011;15749;49.606;8.738;2023-10-09T05:22:44;1.87;;;1.70;;
28545;SDS011;15749;49.606;8.738;2023-10-09T05:25:24;4.77;;;2.40;;
28545;SDS011;15749;49.606;8.738;2023-10-09T05:28:22;2.97;;;2.20;;
28545;SDS011;15749;49.606;8.738;2023-10-09T05:31:00;2.03;;;1.80;;
28545;SDS011;15749;49.606;8.738;2023-10-09T05:33:35;2.10;;;1.90;;
28545;SDS011;15749;49.606;8.738;2023-10-09T05:36:05;1.70;;;1.60;;
28545;SDS011;15749;49.606;8.738;2023-10-09T05:38:59;1.53;;;1.43;;
28545;SDS011;15749;49.606;8.738;2023-10-09T05:41:45;3.00;;;2.00;;
28545;SDS011;15749;49.606;8.738;2023-10-09T05:44:15;2.00;;;1.70;;
28545;SDS011;15749;49.606;8.738;2023-10-09T05:46:59;2.87;;;1.50;;
28545;SDS011;15749;49.606;8.738;2023-10-09T05:49:46;2.07;;;1.60;;
28545;SDS011;15749;49.606;8.738;2023-10-09T05:52:22;3.27;;;1.73;;
28545;SDS011;15749;49.606;8.738;2023-10-09T05:55:00;2.57;;;1.80;;
28545;SDS011;15749;49.606;8.738;2023-10-09T05:58:08;3.10;;;2.40;;
28545;SDS011;15749;49.606;8.738;2023-10-09T06:00:54;3.73;;;2.40;;
28545;SDS011;15749;49.606;8.738;2023-10-09T06:03:42;3.03;;;1.90;;
28545;SDS011;15749;49.606;8.738;2023-10-09T06:06:25;2.40;;;1.90;;
28545;SDS011;15749;49.606;8.738;2023-10-09T06:09:12;2.80;;;1.93;;
28545;SDS011;15749;49.606;8.738;2023-10-09T06:11:56;3.00;;;2.67;;
28545;SDS011;15749;49.606;8.738;2023-10-09T06:14:39;4.13;;;2.77;;
28545;SDS011;15749;49.606;8.738;2023-10-09T06:17:25;3.17;;;2.53;;
28545;SDS011;15749;49.606;8.738;2023-10-09T06:20:12;3.90;;;2.80;;
28545;SDS011;15749;49.606;8.738;2023-10-09T06:22:55;2.37;;;1.90;;
28545;SDS011;15749;49.606;8.738;2023-10-09T06:25:43;2.47;;;1.73;;
28545;SDS011;15749;49.606;8.738;2023-10-09T06:28:19;2.47;;;1.97;;
28545;SDS011;15749;49.606;8.738;2023-10-09T06:31:00;2.60;;;2.27;;
28545;SDS011;15749;49.606;8.738;2023-10-09T06:33:49;2.33;;;2.00;;
28545;SDS011;15749;49.606;8.738;2023-10-09T06:36:44;4.13;;;2.23;;
28545;SDS011;15749;49.606;8.738;2023-10-09T06:39:20;2.23;;;2.03;;
28545;SDS011;15749;49.606;8.738;2023-10-09T06:42:15;2.50;;;1.80;;
28545;SDS011;15749;49.606;8.738;2023-10-09T06:45:02;2.07;;;1.70;;
28545;SDS011;15749;49.606;8.738;2023-10-09T06:47:34;3.23;;;2.33;;
28545;SDS011;15749;49.606;8.738;2023-10-09T06:50:09;2.43;;;2.23;;
28545;SDS011;15749;49.606;8.738;2023-10-09T06:52:53;4.13;;;3.37;;
28545;SDS011;15749;49.606;8.738;2023-10-09T06:55:52;4.50;;;4.10;;
28545;SDS011;15749;49.606;8.738;2023-10-09T06:58:32;7.80;;;7.10;;
28545;SDS011;15749;49.606;8.738;2023-10-09T07:01:10;12.30;;;4.07;;
28545;SDS011;15749;49.606;8.738;2023-10-09T07:03:52;3.10;;;2.80;;
28545;SDS011;15749;49.606;8.738;2023-10-09T07:06:27;5.13;;;3.10;;
28545;SDS011;15749;49.606;8.738;2023-10-09T07:09:15;6.00;;;3.23;;
28545;SDS011;15749;49.606;8.738;2023-10-09T07:11:47;3.70;;;2.40;;
28545;SDS011;15749;49.606;8.738;2023-10-09T07:14:37;2.70;;;2.20;;
28545;SDS011;15749;49.606;8.738;2023-10-09T07:17:24;3.23;;;2.13;;
28545;SDS011;15749;49.606;8.738;2023-10-09T07:20:10;3.47;;;2.80;;
28545;SDS011;15749;49.606;8.738;2023-10-09T07:23:03;2.00;;;1.80;;
28545;SDS011;15749;49.606;8.738;2023-10-09T07:25:46;2.70;;;2.40;;
28545;SDS011;15749;49.606;8.738;2023-10-09T07:28:25;2.60;;;2.40;;
28545;SDS011;15749;49.606;8.738;2023-10-09T07:31:04;3.23;;;2.47;;
28545;SDS011;15749;49.606;8.738;2023-10-09T07:33:37;4.27;;;2.83;;
28545;SDS011;15749;49.606;8.738;2023-10-09T07:36:24;4.03;;;2.90;;
28545;SDS011;15749;49.606;8.738;2023-10-09T07:39:05;2.83;;;2.50;;
28545;SDS011;15749;49.606;8.738;2023-10-09T07:41:46;2.10;;;1.87;;
28545;SDS011;15749;49.606;8.738;2023-10-09T07:44:29;2.00;;;1.80;;
28545;SDS011;15749;49.606;8.738;2023-10-09T07:47:10;3.23;;;2.30;;
28545;SDS011;15749;49.606;8.738;2023-10-09T07:49:44;3.90;;;2.13;;
28545;SDS011;15749;49.606;8.738;2023-10-09T07:52:21;4.17;;;2.00;;
28545;SDS011;15749;49.606;8.738;2023-10-09T07:54:51;2.93;;;2.20;;
28545;SDS011;15749;49.606;8.738;2023-10-09T07:57:30;2.57;;;2.00;;
28545;SDS011;15749;49.606;8.738;2023-10-09T08:00:07;3.07;;;2.77;;
28545;SDS011;15749;49.606;8.738;2023-10-09T08:03:01;3.10;;;2.73;;
28545;SDS011;15749;49.606;8.738;2023-10-09T08:05:51;4.33;;;2.60;;
28545;SDS011;15749;49.606;8.738;2023-10-09T08:08:34;3.37;;;1.87;;
28545;SDS011;15749;49.606;8.738;2023-10-09T08:11:30;3.40;;;2.13;;
28545;SDS011;15749;49.606;8.738;2023-10-09T08:14:22;13.07;;;3.07;;
28545;SDS011;15749;49.606;8.738;2023-10-09T08:17:05;6.13;;;3.10;;
28545;SDS011;15749;49.606;8.738;2023-10-09T08:19:47;4.30;;;2.20;;
28545;SDS011;15749;49.606;8.738;2023-10-09T08:22:25;2.37;;;2.13;;
28545;SDS011;15749;49.606;8.738;2023-10-09T08:25:18;2.40;;;1.60;;
28545;SDS011;15749;49.606;8.738;2023-10-09T08:28:00;3.63;;;3.33;;
28545;SDS011;15749;49.606;8.738;2023-10-09T08:30:49;4.30;;;3.00;;
28545;SDS011;15749;49.606;8.738;2023-10-09T08:33:30;3.50;;;2.70;;
28545;SDS011;15749;49.606;8.738;2023-10-09T08:36:11;3.90;;;3.00;;
28545;SDS011;15749;49.606;8.738;2023-10-09T08:38:50;2.97;;;2.40;;
28545;SDS011;15749;49.606;8.738;2023-10-09T08:41:25;3.07;;;2.77;;
28545;SDS011;15749;49.606;8.738;2023-10-09T08:43:57;2.67;;;2.00;;
28545;SDS011;15749;49.606;8.738;2023-10-09T08:46:29;3.13;;;2.63;;
28545;SDS011;15749;49.606;8.738;2023-10-09T08:48:59;4.87;;;3.03;;
28545;SDS011;15749;49.606;8.738;2023-10-09T08:51:32;4.23;;;3.07;;
28545;SDS011;15749;49.606;8.738;2023-10-09T08:54:02;4.03;;;2.20;;
28545;SDS011;15749;49.606;8.738;2023-10-09T08:56:39;3.27;;;1.90;;
28545;SDS011;15749;49.606;8.738;2023-10-09T08:59:17;2.40;;;2.00;;
28545;SDS011;15749;49.606;8.738;2023-10-09T09:01:49;4.80;;;3.63;;
28545;SDS011;15749;49.606;8.738;2023-10-09T09:04:35;6.17;;;2.97;;
28545;SDS011;15749;49.606;8.738;2023-10-09T09:07:21;5.70;;;2.80;;
28545;SDS011;15749;49.606;8.738;2023-10-09T09:09:57;3.30;;;2.80;;
28545;SDS011;15749;49.606;8.738;2023-10-09T09:12:31;6.37;;;2.90;;
28545;SDS011;15749;49.606;8.738;2023-10-09T09:15:07;2.50;;;2.30;;
28545;SDS011;15749;49.606;8.738;2023-10-09T09:17:49;3.10;;;2.33;;
28545;SDS011;15749;49.606;8.738;2023-10-09T09:20:19;3.07;;;2.10;;
28545;SDS011;15749;49.606;8.738;2023-10-09T09:22:53;3.27;;;2.13;;
28545;SDS011;15749;49.606;8.738;2023-10-09T09:25:28;3.07;;;2.47;;
28545;SDS011;15749;49.606;8.738;2023-10-09T09:28:12;4.70;;;2.37;;
28545;SDS011;15749;49.606;8.738;2023-10-09T09:30:47;6.03;;;2.30;;
28545;SDS011;15749;49.606;8.738;2023-10-09T09:33:21;4.07;;;2.47;;
28545;SDS011;15749;49.606;8.738;2023-10-09T09:36:07;2.63;;;2.20;;
28545;SDS011;15749;49.606;8.738;2023-10-09T09:38:41;6.23;;;2.73;;
28545;SDS011;15749;49.606;8.738;2023-10-09T09:41:15;4.63;;;3.23;;
28545;SDS011;15749;49.606;8.738;2023-10-09T09:43:52;3.27;;;2.40;;
28545;SDS011;15749;49.606;8.738;2023-10-09T09:46:24;2.20;;;2.00;;
28545;SDS011;15749;49.606;8.738;2023-10-09T09:49:03;3.67;;;2.43;;
28545;SDS011;15749;49.606;8.738;2023-10-09T09:51:43;7.47;;;3.00;;
28545;SDS011;15749;49.606;8.738;2023-10-09T09:54:14;5.63;;;2.97;;
28545;SDS011;15749;49.606;8.738;2023-10-09T09:56:44;5.30;;;2.67;;
28545;SDS011;15749;49.606;8.738;2023-10-09T09:59:18;5.07;;;2.33;;
28545;SDS011;15749;49.606;8.738;2023-10-09T10:01:51;2.97;;;1.80;;
28545;SDS011;15749;49.606;8.738;2023-10-09T10:04:28;3.57;;;1.60;;
28545;SDS011;15749;49.606;8.738;2023-10-09T10:07:02;5.07;;;2.50;;
28545;SDS011;15749;49.606;8.738;2023-10-09T10:09:36;4.73;;;2.60;;
28545;SDS011;15749;49.606;8.738;2023-10-09T10:12:08;5.27;;;2.60;;
28545;SDS011;15749;49.606;8.738;2023-10-09T10:14:53;5.83;;;2.60;;
28545;SDS011;15749;49.606;8.738;2023-10-09T10:17:26;4.33;;;1.90;;
28545;SDS011;15749;49.606;8.738;2023-10-09T10:20:02;5.97;;;2.50;;
28545;SDS011;15749;49.606;8.738;2023-10-09T10:22:47;9.10;;;2.87;;
28545;SDS011;15749;49.606;8.738;2023-10-09T10:25:34;6.00;;;2.83;;
28545;SDS011;15749;49.606;8.738;2023-10-09T10:28:19;5.33;;;2.93;;
28545;SDS011;15749;49.606;8.738;2023-10-09T10:31:05;5.47;;;2.93;;
28545;SDS011;15749;49.606;8.738;2023-10-09T10:34:02;6.13;;;2.93;;
28545;SDS011;15749;49.606;8.738;2023-10-09T10:36:36;4.70;;;3.00;;
28545;SDS011;15749;49.606;8.738;2023-10-09T10:39:09;6.27;;;2.70;;
28545;SDS011;15749;49.606;8.738;2023-10-09T10:41:53;5.10;;;1.90;;
28545;SDS011;15749;49.606;8.738;2023-10-09T10:44:26;4.43;;;2.50;;
28545;SDS011;15749;49.606;8.738;2023-10-09T10:47:04;4.87;;;2.50;;
28545;SDS011;15749;49.606;8.738;2023-10-09T10:49:49;5.60;;;2.40;;
28545;SDS011;15749;49.606;8.738;2023-10-09T10:52:24;7.77;;;2.50;;
28545;SDS011;15749;49.606;8.738;2023-10-09T10:55:10;3.93;;;2.20;;
28545;SDS011;15749;49.606;8.738;2023-10-09T10:58:16;3.60;;;1.80;;
28545;SDS011;15749;49.606;8.738;2023-10-09T11:00:51;8.23;;;2.30;;
28545;SDS011;15749;49.606;8.738;2023-10-09T11:03:39;2.37;;;1.60;;
28545;SDS011;15749;49.606;8.738;2023-10-09T12:37:42;4.27;;;2.13;;
28545;SDS011;15749;49.606;8.738;2023-10-09T12:40:11;4.47;;;2.10;;
28545;SDS011;15749;49.606;8.738;2023-10-09T12:42:41;2.33;;;1.47;;
28545;SDS011;15749;49.606;8.738;2023-10-09T12:45:10;3.17;;;1.75;;
28545;SDS011;15749;49.606;8.738;2023-10-09T12:47:40;7.03;;;2.50;;
28545;SDS011;15749;49.606;8.738;2023-10-09T12:50:10;2.47;;;2.10;;
28545;SDS011;15749;49.606;8.738;2023-10-09T12:52:42;3.90;;;2.10;;
28545;SDS011;15749;49.606;8.738;2023-10-09T12:55:15;3.22;;;1.75;;
28545;SDS011;15749;49.606;8.738;2023-10-09T12:57:47;4.70;;;1.50;;
28545;SDS011;15749;49.606;8.738;2023-10-09T13:00:19;3.55;;;1.70;;
28545;SDS011;15749;49.606;8.738;2023-10-09T13:02:52;3.45;;;2.33;;
28545;SDS011;15749;49.606;8.738;2023-10-09T13:05:22;4.97;;;2.92;;
28545;SDS011;15749;49.606;8.738;2023-10-09T13:07:55;6.22;;;3.10;;
28545;SDS011;15749;49.606;8.738;2023-10-09T13:10:25;6.05;;;2.55;;
28545;SDS011;15749;49.606;8.738;2023-10-09T13:12:58;4.43;;;2.70;;
28545;SDS011;15749;49.606;8.738;2023-10-09T13:15:27;13.20;;;2.95;;
28545;SDS011;15749;49.606;8.738;2023-10-09T13:18:09;5.63;;;2.30;;
28545;SDS011;15749;49.606;8.738;2023-10-09T13:20:39;3.53;;;1.95;;
28545;SDS011;15749;49.606;8.738;2023-10-09T13:23:10;2.97;;;1.70;;
28545;SDS011;15749;49.606;8.738;2023-10-09T13:25:42;2.87;;;1.60;;
28545;SDS011;15749;49.606;8.738;2023-10-09T13:28:11;2.22;;;1.50;;
28545;SDS011;15749;49.606;8.738;2023-10-09T13:30:47;2.78;;;1.63;;
28545;SDS011;15749;49.606;8.738;2023-10-09T13:33:18;2.55;;;1.60;;
28545;SDS011;15749;49.606;8.738;2023-10-09T13:35:49;4.40;;;1.42;;
28545;SDS011;15749;49.606;8.738;2023-10-09T13:38:20;3.00;;;2.00;;
28545;SDS011;15749;49.606;8.738;2023-10-09T13:40:56;2.42;;;1.58;;
28545;SDS011;15749;49.606;8.738;2023-10-09T13:43:28;3.15;;;1.67;;
28545;SDS011;15749;49.606;8.738;2023-10-09T13:45:58;2.95;;;1.48;;
28545;SDS011;15749;49.606;8.738;2023-10-09T13:48:31;2.67;;;1.60;;
28545;SDS011;15749;49.606;8.738;2023-10-09T13:51:05;4.65;;;1.67;;
28545;SDS011;15749;49.606;8.738;2023-10-09T13:53:42;6.15;;;2.58;;
28545;SDS011;15749;49.606;8.738;2023-10-09T13:56:15;2.80;;;1.85;;
28545;SDS011;15749;49.606;8.738;2023-10-09T13:58:46;8.88;;;3.05;;
28545;SDS011;15749;49.606;8.738;2023-10-09T14:01:18;2.88;;;2.17;;
28545;SDS011;15749;49.606;8.738;2023-10-09T14:03:55;4.30;;;2.28;;
28545;SDS011;15749;49.606;8.738;2023-10-09T14:06:27;3.80;;;2.50;;
28545;SDS011;15749;49.606;8.738;2023-10-09T14:09:01;2.72;;;1.90;;
28545;SDS011;15749;49.606;8.738;2023-10-09T14:11:32;5.20;;;2.83;;
28545;SDS011;15749;49.606;8.738;2023-10-09T14:14:05;4.25;;;2.10;;
28545;SDS011;15749;49.606;8.738;2023-10-09T14:16:38;4.13;;;2.55;;
28545;SDS011;15749;49.606;8.738;2023-10-09T14:19:12;3.97;;;2.60;;
28545;SDS011;15749;49.606;8.738;2023-10-09T14:21:41;3.30;;;2.03;;
28545;SDS011;15749;49.606;8.738;2023-10-09T14:24:12;9.60;;;3.17;;
28545;SDS011;15749;49.606;8.738;2023-10-09T14:26:46;6.15;;;2.40;;
28545;SDS011;15749;49.606;8.738;2023-10-09T14:29:19;4.43;;;2.40;;
28545;SDS011;15749;49.606;8.738;2023-10-09T14:31:51;3.05;;;2.13;;
28545;SDS011;15749;49.606;8.738;2023-10-09T14:34:28;2.78;;;2.05;;
28545;SDS011;15749;49.606;8.738;2023-10-09T14:37:00;4.05;;;2.35;;
28545;SDS011;15749;49.606;8.738;2023-10-09T14:39:30;5.43;;;1.65;;
28545;SDS011;15749;49.606;8.738;2023-10-09T14:42:04;2.28;;;1.30;;
28545;SDS011;15749;49.606;8.738;2023-10-09T14:44:36;6.18;;;2.53;;
28545;SDS011;15749;49.606;8.738;2023-10-09T14:47:06;1.98;;;1.60;;
28545;SDS011;15749;49.606;8.738;2023-10-09T14:49:35;6.25;;;1.60;;
28545;SDS011;15749;49.606;8.738;2023-10-09T14:52:11;2.25;;;2.05;;
28545;SDS011;15749;49.606;8.738;2023-10-09T14:54:45;2.72;;;1.75;;
28545;SDS011;15749;49.606;8.738;2023-10-09T14:57:17;3.88;;;1.92;;
28545;SDS011;15749;49.606;8.738;2023-10-09T14:59:47;1.30;;;1.20;;
28545;SDS011;15749;49.606;8.738;2023-10-09T15:02:16;2.33;;;1.90;;
28545;SDS011;15749;49.606;8.738;2023-10-09T15:04:46;4.05;;;2.00;;
28545;SDS011;15749;49.606;8.738;2023-10-09T15:07:15;3.50;;;1.83;;
28545;SDS011;15749;49.606;8.738;2023-10-09T15:10:06;4.40;;;2.00;;
28545;SDS011;15749;49.606;8.738;2023-10-09T15:12:36;1.95;;;1.38;;
28545;SDS011;15749;49.606;8.738;2023-10-09T15:15:12;2.28;;;1.38;;
28545;SDS011;15749;49.606;8.738;2023-10-09T15:17:42;2.20;;;1.35;;
28545;SDS011;15749;49.606;8.738;2023-10-09T15:20:13;5.15;;;1.63;;
28545;SDS011;15749;49.606;8.738;2023-10-09T15:22:43;2.53;;;1.63;;
28545;SDS011;15749;49.606;8.738;2023-10-09T15:25:15;6.78;;;2.40;;
28545;SDS011;15749;49.606;8.738;2023-10-09T15:27:44;2.92;;;2.47;;
28545;SDS011;15749;49.606;8.738;2023-10-09T15:30:14;2.20;;;1.67;;
28545;SDS011;15749;49.606;8.738;2023-10-09T15:32:44;2.65;;;1.40;;
28545;SDS011;15749;49.606;8.738;2023-10-09T15:35:13;3.88;;;2.10;;
28545;SDS011;15749;49.606;8.738;2023-10-09T15:37:43;3.33;;;1.75;;
28545;SDS011;15749;49.606;8.738;2023-10-09T15:40:14;2.60;;;1.55;;
28545;SDS011;15749;49.606;8.738;2023-10-09T15:42:46;2.53;;;1.60;;
28545;SDS011;15749;49.606;8.738;2023-10-09T15:45:17;5.75;;;1.50;;
28545;SDS011;15749;49.606;8.738;2023-10-09T15:47:49;2.75;;;2.10;;
28545;SDS011;15749;49.606;8.738;2023-10-09T15:50:19;3.20;;;1.90;;
28545;SDS011;15749;49.606;8.738;2023-10-09T15:52:51;3.13;;;1.70;;
28545;SDS011;15749;49.606;8.738;2023-10-09T15:55:22;4.50;;;2.33;;
28545;SDS011;15749;49.606;8.738;2023-10-09T15:57:52;2.75;;;1.60;;
28545;SDS011;15749;49.606;8.738;2023-10-09T16:00:22;2.70;;;1.67;;
28545;SDS011;15749;49.606;8.738;2023-10-09T16:02:56;1.65;;;1.50;;
28545;SDS011;15749;49.606;8.738;2023-10-09T16:05:28;4.22;;;1.90;;
28545;SDS011;15749;49.606;8.738;2023-10-09T16:07:57;4.78;;;2.22;;
28545;SDS011;15749;49.606;8.738;2023-10-09T16:10:29;5.30;;;2.55;;
28545;SDS011;15749;49.606;8.738;2023-10-09T16:12:59;5.53;;;2.58;;
28545;SDS011;15749;49.606;8.738;2023-10-09T16:15:28;3.08;;;2.00;;
28545;SDS011;15749;49.606;8.738;2023-10-09T16:17:57;2.42;;;1.67;;
28545;SDS011;15749;49.606;8.738;2023-10-09T16:20:30;2.78;;;2.08;;
28545;SDS011;15749;49.606;8.738;2023-10-09T16:23:00;4.22;;;2.13;;
28545;SDS011;15749;49.606;8.738;2023-10-09T16:25:33;3.28;;;2.40;;
28545;SDS011;15749;49.606;8.738;2023-10-09T16:28:03;4.88;;;2.67;;
28545;SDS011;15749;49.606;8.738;2023-10-09T16:30:33;5.30;;;2.50;;
28545;SDS011;15749;49.606;8.738;2023-10-09T16:33:04;4.15;;;2.83;;
28545;SDS011;15749;49.606;8.738;2023-10-09T16:35:33;6.05;;;2.40;;
28545;SDS011;15749;49.606;8.738;2023-10-09T16:38:05;6.72;;;2.90;;
28545;SDS011;15749;49.606;8.738;2023-10-09T16:40:41;4.15;;;3.00;;
28545;SDS011;15749;49.606;8.738;2023-10-09T16:43:14;2.47;;;2.10;;
28545;SDS011;15749;49.606;8.738;2023-10-09T16:45:45;3.97;;;2.50;;
28545;SDS011;15749;49.606;8.738;2023-10-09T16:48:14;3.97;;;2.78;;
28545;SDS011;15749;49.606;8.738;2023-10-09T16:50:44;4.82;;;2.70;;
28545;SDS011;15749;49.606;8.738;2023-10-09T16:53:14;4.57;;;3.05;;
28545;SDS011;15749;49.606;8.738;2023-10-09T16:55:45;4.47;;;3.05;;
28545;SDS011;15749;49.606;8.738;2023-10-09T16:58:16;4.88;;;3.00;;
28545;SDS011;15749;49.606;8.738;2023-10-09T17:00:45;6.70;;;2.72;;
28545;SDS011;15749;49.606;8.738;2023-10-09T17:03:14;4.85;;;2.55;;
28545;SDS011;15749;49.606;8.738;2023-10-09T17:05:45;2.22;;;1.95;;
28545;SDS011;15749;49.606;8.738;2023-10-09T17:08:25;3.75;;;2.30;;
28545;SDS011;15749;49.606;8.738;2023-10-09T17:10:58;5.85;;;3.00;;
28545;SDS011;15749;49.606;8.738;2023-10-09T17:13:30;4.15;;;2.10;;
28545;SDS011;15749;49.606;8.738;2023-10-09T17:16:00;9.40;;;2.70;;
28545;SDS011;15749;49.606;8.738;2023-10-09T17:18:30;4.82;;;2.92;;
28545;SDS011;15749;49.606;8.738;2023-10-09T17:20:59;2.60;;;2.28;;